sensor_id;sensor_type;location;lat;lon;timestamp;P1;durP1;ratioP1;P2;durP2;ratioP2
76765;SDS011;65707;52.362;6.588;2023-10-09T00:01:50;15.27;;;5.07;;
76765;SDS011;65707;52.362;6.588;2023-10-09T00:04:17;16.67;;;5.63;;
76765;SDS011;65707;52.362;6.588;2023-10-09T00:06:45;15.80;;;5.28;;
76765;SDS011;65707;52.362;6.588;2023-10-09T00:09:13;15.43;;;5.80;;
76765;SDS011;65707;52.362;6.588;2023-10-09T00:11:57;20.02;;;6.72;;
76765;SDS011;65707;52.362;6.588;2023-10-09T00:14:25;16.80;;;5.78;;
76765;SDS011;65707;52.362;6.588;2023-10-09T00:16:55;17.50;;;6.25;;
76765;SDS011;65707;52.362;6.588;2023-10-09T00:19:42;15.07;;;6.07;;
76765;SDS011;65707;52.362;6.588;2023-10-09T00:22:11;18.33;;;6.15;;
76765;SDS011;65707;52.362;6.588;2023-10-09T00:24:50;18.05;;;6.35;;
76765;SDS011;65707;52.362;6.588;2023-10-09T00:27:37;17.92;;;6.70;;
76765;SDS011;65707;52.362;6.588;2023-10-09T00:30:11;17.33;;;6.70;;
76765;SDS011;65707;52.362;6.588;2023-10-09T00:32:42;19.30;;;7.47;;
76765;SDS011;65707;52.362;6.588;2023-10-09T00:35:24;20.17;;;7.22;;
76765;SDS011;65707;52.362;6.588;2023-10-09T00:38:19;21.17;;;7.72;;
76765;SDS011;65707;52.362;6.588;2023-10-09T00:40:57;21.88;;;8.48;;
76765;SDS011;65707;52.362;6.588;2023-10-09T00:43:36;18.73;;;8.07;;
76765;SDS011;65707;52.362;6.588;2023-10-09T00:46:08;19.17;;;8.07;;
76765;SDS011;65707;52.362;6.588;2023-10-09T00:48:49;23.48;;;8.10;;
76765;SDS011;65707;52.362;6.588;2023-10-09T00:51:21;22.95;;;8.23;;
76765;SDS011;65707;52.362;6.588;2023-10-09T00:53:52;27.35;;;7.85;;
76765;SDS011;65707;52.362;6.588;2023-10-09T00:56:24;21.98;;;8.70;;
76765;SDS011;65707;52.362;6.588;2023-10-09T00:59:05;22.75;;;9.20;;
76765;SDS011;65707;52.362;6.588;2023-10-09T01:01:40;20.95;;;8.05;;
76765;SDS011;65707;52.362;6.588;2023-10-09T01:04:21;23.10;;;8.95;;
76765;SDS011;65707;52.362;6.588;2023-10-09T01:06:51;27.33;;;8.77;;
76765;SDS011;65707;52.362;6.588;2023-10-09T01:09:31;26.00;;;8.98;;
76765;SDS011;65707;52.362;6.588;2023-10-09T01:12:02;21.85;;;8.95;;
76765;SDS011;65707;52.362;6.588;2023-10-09T01:14:31;24.42;;;9.18;;
76765;SDS011;65707;52.362;6.588;2023-10-09T01:17:01;30.42;;;9.50;;
76765;SDS011;65707;52.362;6.588;2023-10-09T01:19:32;27.08;;;10.55;;
76765;SDS011;65707;52.362;6.588;2023-10-09T01:21:59;27.58;;;10.48;;
76765;SDS011;65707;52.362;6.588;2023-10-09T01:24:30;31.50;;;12.02;;
76765;SDS011;65707;52.362;6.588;2023-10-09T01:27:00;25.63;;;10.48;;
76765;SDS011;65707;52.362;6.588;2023-10-09T01:29:30;31.17;;;11.48;;
76765;SDS011;65707;52.362;6.588;2023-10-09T01:32:00;30.55;;;12.10;;
76765;SDS011;65707;52.362;6.588;2023-10-09T01:34:28;31.23;;;10.90;;
76765;SDS011;65707;52.362;6.588;2023-10-09T01:37:07;30.73;;;11.15;;
76765;SDS011;65707;52.362;6.588;2023-10-09T01:39:44;29.90;;;11.07;;
76765;SDS011;65707;52.362;6.588;2023-10-09T01:42:13;24.85;;;11.38;;
76765;SDS011;65707;52.362;6.588;2023-10-09T01:44:49;28.77;;;11.63;;
76765;SDS011;65707;52.362;6.588;2023-10-09T01:47:18;28.73;;;11.70;;
76765;SDS011;65707;52.362;6.588;2023-10-09T01:49:46;32.25;;;12.70;;
76765;SDS011;65707;52.362;6.588;2023-10-09T01:52:14;27.00;;;11.98;;
76765;SDS011;65707;52.362;6.588;2023-10-09T01:54:44;32.47;;;12.10;;
76765;SDS011;65707;52.362;6.588;2023-10-09T01:57:16;28.10;;;12.25;;
76765;SDS011;65707;52.362;6.588;2023-10-09T01:59:48;33.80;;;13.05;;
76765;SDS011;65707;52.362;6.588;2023-10-09T02:02:18;31.70;;;13.00;;
76765;SDS011;65707;52.362;6.588;2023-10-09T02:04:52;30.95;;;12.85;;
76765;SDS011;65707;52.362;6.588;2023-10-09T02:07:32;30.20;;;13.90;;
76765;SDS011;65707;52.362;6.588;2023-10-09T02:10:11;33.90;;;12.82;;
76765;SDS011;65707;52.362;6.588;2023-10-09T02:12:51;33.10;;;13.68;;
76765;SDS011;65707;52.362;6.588;2023-10-09T02:15:23;29.23;;;12.75;;
76765;SDS011;65707;52.362;6.588;2023-10-09T02:18:04;30.15;;;12.60;;
76765;SDS011;65707;52.362;6.588;2023-10-09T02:20:41;33.45;;;12.55;;
76765;SDS011;65707;52.362;6.588;2023-10-09T02:23:10;34.53;;;13.52;;
76765;SDS011;65707;52.362;6.588;2023-10-09T02:25:39;31.77;;;12.68;;
76765;SDS011;65707;52.362;6.588;2023-10-09T02:28:08;41.15;;;13.38;;
76765;SDS011;65707;52.362;6.588;2023-10-09T02:30:42;30.15;;;12.90;;
76765;SDS011;65707;52.362;6.588;2023-10-09T02:33:12;32.80;;;13.85;;
76765;SDS011;65707;52.362;6.588;2023-10-09T02:35:43;34.45;;;13.73;;
76765;SDS011;65707;52.362;6.588;2023-10-09T02:38:16;34.55;;;13.02;;
76765;SDS011;65707;52.362;6.588;2023-10-09T02:40:49;32.08;;;14.25;;
76765;SDS011;65707;52.362;6.588;2023-10-09T02:43:43;31.52;;;13.57;;
76765;SDS011;65707;52.362;6.588;2023-10-09T02:46:11;37.13;;;15.00;;
76765;SDS011;65707;52.362;6.588;2023-10-09T02:48:43;38.20;;;14.13;;
76765;SDS011;65707;52.362;6.588;2023-10-09T02:51:12;32.80;;;13.13;;
76765;SDS011;65707;52.362;6.588;2023-10-09T02:53:47;32.63;;;13.95;;
76765;SDS011;65707;52.362;6.588;2023-10-09T02:56:16;34.92;;;14.40;;
76765;SDS011;65707;52.362;6.588;2023-10-09T02:58:49;35.63;;;13.50;;
76765;SDS011;65707;52.362;6.588;2023-10-09T03:01:17;33.45;;;13.30;;
76765;SDS011;65707;52.362;6.588;2023-10-09T03:03:44;32.22;;;14.00;;
76765;SDS011;65707;52.362;6.588;2023-10-09T03:06:12;32.42;;;13.82;;
76765;SDS011;65707;52.362;6.588;2023-10-09T03:08:50;30.50;;;13.10;;
76765;SDS011;65707;52.362;6.588;2023-10-09T03:11:18;34.65;;;14.10;;
76765;SDS011;65707;52.362;6.588;2023-10-09T03:13:45;34.10;;;13.85;;
76765;SDS011;65707;52.362;6.588;2023-10-09T03:16:15;33.85;;;13.85;;
76765;SDS011;65707;52.362;6.588;2023-10-09T03:18:45;33.25;;;13.60;;
76765;SDS011;65707;52.362;6.588;2023-10-09T03:21:12;30.30;;;14.27;;
76765;SDS011;65707;52.362;6.588;2023-10-09T03:23:42;36.20;;;14.57;;
76765;SDS011;65707;52.362;6.588;2023-10-09T03:26:14;32.67;;;13.65;;
76765;SDS011;65707;52.362;6.588;2023-10-09T03:28:45;34.25;;;13.95;;
76765;SDS011;65707;52.362;6.588;2023-10-09T03:31:15;33.05;;;14.48;;
76765;SDS011;65707;52.362;6.588;2023-10-09T03:33:44;34.33;;;13.50;;
76765;SDS011;65707;52.362;6.588;2023-10-09T03:36:13;33.83;;;14.90;;
76765;SDS011;65707;52.362;6.588;2023-10-09T03:38:41;36.33;;;14.15;;
76765;SDS011;65707;52.362;6.588;2023-10-09T03:41:10;33.90;;;14.57;;
76765;SDS011;65707;52.362;6.588;2023-10-09T03:43:39;33.47;;;14.23;;
76765;SDS011;65707;52.362;6.588;2023-10-09T03:46:08;37.40;;;14.85;;
76765;SDS011;65707;52.362;6.588;2023-10-09T03:48:40;32.38;;;14.02;;
76765;SDS011;65707;52.362;6.588;2023-10-09T03:51:18;36.38;;;14.57;;
76765;SDS011;65707;52.362;6.588;2023-10-09T03:53:47;31.58;;;14.27;;
76765;SDS011;65707;52.362;6.588;2023-10-09T03:56:14;33.53;;;14.57;;
76765;SDS011;65707;52.362;6.588;2023-10-09T03:58:43;32.63;;;14.50;;
76765;SDS011;65707;52.362;6.588;2023-10-09T04:01:12;30.77;;;13.23;;
76765;SDS011;65707;52.362;6.588;2023-10-09T04:03:48;36.17;;;15.25;;
76765;SDS011;65707;52.362;6.588;2023-10-09T04:06:15;34.35;;;14.13;;
76765;SDS011;65707;52.362;6.588;2023-10-09T04:08:42;31.75;;;13.82;;
76765;SDS011;65707;52.362;6.588;2023-10-09T04:11:13;35.70;;;14.20;;
76765;SDS011;65707;52.362;6.588;2023-10-09T04:13:43;34.03;;;15.43;;
76765;SDS011;65707;52.362;6.588;2023-10-09T04:16:13;35.63;;;14.98;;
76765;SDS011;65707;52.362;6.588;2023-10-09T04:18:57;30.30;;;13.82;;
76765;SDS011;65707;52.362;6.588;2023-10-09T04:21:25;34.28;;;15.00;;
76765;SDS011;65707;52.362;6.588;2023-10-09T04:23:59;35.28;;;15.05;;
76765;SDS011;65707;52.362;6.588;2023-10-09T04:26:47;35.80;;;15.10;;
76765;SDS011;65707;52.362;6.588;2023-10-09T04:29:21;31.27;;;14.38;;
76765;SDS011;65707;52.362;6.588;2023-10-09T04:32:05;34.20;;;14.38;;
76765;SDS011;65707;52.362;6.588;2023-10-09T04:34:41;32.92;;;15.00;;
76765;SDS011;65707;52.362;6.588;2023-10-09T04:37:13;33.42;;;14.75;;
76765;SDS011;65707;52.362;6.588;2023-10-09T04:40:02;37.28;;;14.50;;
76765;SDS011;65707;52.362;6.588;2023-10-09T04:42:37;33.85;;;14.48;;
76765;SDS011;65707;52.362;6.588;2023-10-09T04:45:04;33.83;;;14.90;;
76765;SDS011;65707;52.362;6.588;2023-10-09T04:48:02;32.58;;;14.30;;
76765;SDS011;65707;52.362;6.588;2023-10-09T04:50:34;31.52;;;13.75;;
76765;SDS011;65707;52.362;6.588;2023-10-09T04:53:33;32.28;;;14.40;;
76765;SDS011;65707;52.362;6.588;2023-10-09T04:56:09;34.47;;;15.27;;
76765;SDS011;65707;52.362;6.588;2023-10-09T04:58:40;36.58;;;14.50;;
76765;SDS011;65707;52.362;6.588;2023-10-09T05:01:08;32.90;;;13.88;;
76765;SDS011;65707;52.362;6.588;2023-10-09T05:03:42;31.92;;;13.95;;
76765;SDS011;65707;52.362;6.588;2023-10-09T05:06:10;32.45;;;15.27;;
76765;SDS011;65707;52.362;6.588;2023-10-09T05:09:07;31.65;;;14.18;;
76765;SDS011;65707;52.362;6.588;2023-10-09T05:11:39;33.78;;;14.75;;
76765;SDS011;65707;52.362;6.588;2023-10-09T05:14:40;33.25;;;15.07;;
76765;SDS011;65707;52.362;6.588;2023-10-09T05:17:31;31.67;;;13.93;;
76765;SDS011;65707;52.362;6.588;2023-10-09T05:20:02;31.85;;;13.73;;
76765;SDS011;65707;52.362;6.588;2023-10-09T05:22:59;31.55;;;14.15;;
76765;SDS011;65707;52.362;6.588;2023-10-09T05:25:47;30.60;;;14.10;;
76765;SDS011;65707;52.362;6.588;2023-10-09T05:28:21;30.23;;;13.63;;
76765;SDS011;65707;52.362;6.588;2023-10-09T05:31:13;29.60;;;14.20;;
76765;SDS011;65707;52.362;6.588;2023-10-09T05:34:04;30.17;;;13.75;;
76765;SDS011;65707;52.362;6.588;2023-10-09T05:36:33;28.88;;;14.35;;
76765;SDS011;65707;52.362;6.588;2023-10-09T05:39:00;30.23;;;13.07;;
76765;SDS011;65707;52.362;6.588;2023-10-09T05:41:43;30.92;;;14.15;;
76765;SDS011;65707;52.362;6.588;2023-10-09T05:44:24;36.42;;;14.23;;
76765;SDS011;65707;52.362;6.588;2023-10-09T05:47:09;36.30;;;14.20;;
76765;SDS011;65707;52.362;6.588;2023-10-09T05:49:53;30.33;;;14.13;;
76765;SDS011;65707;52.362;6.588;2023-10-09T05:52:28;35.95;;;14.60;;
76765;SDS011;65707;52.362;6.588;2023-10-09T05:54:57;30.42;;;14.10;;
76765;SDS011;65707;52.362;6.588;2023-10-09T05:57:42;32.97;;;14.30;;
76765;SDS011;65707;52.362;6.588;2023-10-09T06:00:26;32.35;;;14.13;;
76765;SDS011;65707;52.362;6.588;2023-10-09T06:03:11;28.27;;;13.20;;
76765;SDS011;65707;52.362;6.588;2023-10-09T06:05:50;36.38;;;14.18;;
76765;SDS011;65707;52.362;6.588;2023-10-09T06:08:31;31.05;;;13.45;;
76765;SDS011;65707;52.362;6.588;2023-10-09T06:11:12;33.58;;;13.98;;
76765;SDS011;65707;52.362;6.588;2023-10-09T06:13:59;29.27;;;13.27;;
76765;SDS011;65707;52.362;6.588;2023-10-09T06:16:30;29.38;;;12.70;;
76765;SDS011;65707;52.362;6.588;2023-10-09T06:19:06;28.08;;;12.82;;
76765;SDS011;65707;52.362;6.588;2023-10-09T06:21:38;32.25;;;13.25;;
76765;SDS011;65707;52.362;6.588;2023-10-09T06:24:07;29.70;;;12.88;;
76765;SDS011;65707;52.362;6.588;2023-10-09T06:26:44;30.25;;;13.18;;
76765;SDS011;65707;52.362;6.588;2023-10-09T06:29:22;30.75;;;12.57;;
76765;SDS011;65707;52.362;6.588;2023-10-09T06:32:00;28.67;;;12.57;;
76765;SDS011;65707;52.362;6.588;2023-10-09T06:34:59;27.30;;;12.32;;
76765;SDS011;65707;52.362;6.588;2023-10-09T06:37:42;28.95;;;11.82;;
76765;SDS011;65707;52.362;6.588;2023-10-09T06:40:24;26.02;;;11.95;;
76765;SDS011;65707;52.362;6.588;2023-10-09T06:43:09;28.33;;;12.27;;
76765;SDS011;65707;52.362;6.588;2023-10-09T06:45:42;24.65;;;11.93;;
76765;SDS011;65707;52.362;6.588;2023-10-09T06:48:19;26.00;;;11.07;;
76765;SDS011;65707;52.362;6.588;2023-10-09T06:51:08;25.67;;;12.40;;
76765;SDS011;65707;52.362;6.588;2023-10-09T06:53:40;24.35;;;11.30;;
76765;SDS011;65707;52.362;6.588;2023-10-09T06:56:23;27.27;;;12.02;;
76765;SDS011;65707;52.362;6.588;2023-10-09T06:59:12;26.38;;;11.95;;
76765;SDS011;65707;52.362;6.588;2023-10-09T07:01:42;23.50;;;11.25;;
76765;SDS011;65707;52.362;6.588;2023-10-09T07:04:11;28.40;;;11.65;;
76765;SDS011;65707;52.362;6.588;2023-10-09T07:06:43;22.35;;;11.07;;
76765;SDS011;65707;52.362;6.588;2023-10-09T07:09:17;27.75;;;10.90;;
76765;SDS011;65707;52.362;6.588;2023-10-09T07:11:46;26.67;;;10.38;;
76765;SDS011;65707;52.362;6.588;2023-10-09T07:14:25;24.65;;;10.38;;
76765;SDS011;65707;52.362;6.588;2023-10-09T07:17:09;27.77;;;10.82;;
76765;SDS011;65707;52.362;6.588;2023-10-09T07:19:47;24.10;;;10.68;;
76765;SDS011;65707;52.362;6.588;2023-10-09T07:22:34;23.02;;;9.75;;
76765;SDS011;65707;52.362;6.588;2023-10-09T07:25:17;24.88;;;10.05;;
76765;SDS011;65707;52.362;6.588;2023-10-09T07:28:18;22.42;;;10.15;;
76765;SDS011;65707;52.362;6.588;2023-10-09T07:30:54;24.88;;;10.10;;
76765;SDS011;65707;52.362;6.588;2023-10-09T07:33:23;21.88;;;9.88;;
76765;SDS011;65707;52.362;6.588;2023-10-09T07:36:16;23.63;;;10.77;;
76765;SDS011;65707;52.362;6.588;2023-10-09T07:38:54;28.13;;;10.07;;
76765;SDS011;65707;52.362;6.588;2023-10-09T07:41:24;23.63;;;9.82;;
76765;SDS011;65707;52.362;6.588;2023-10-09T07:44:10;21.40;;;9.73;;
76765;SDS011;65707;52.362;6.588;2023-10-09T07:47:00;26.67;;;9.50;;
76765;SDS011;65707;52.362;6.588;2023-10-09T07:49:42;22.60;;;10.02;;
76765;SDS011;65707;52.362;6.588;2023-10-09T07:52:14;22.10;;;9.48;;
76765;SDS011;65707;52.362;6.588;2023-10-09T07:54:42;20.08;;;9.52;;
76765;SDS011;65707;52.362;6.588;2023-10-09T07:57:18;20.15;;;8.98;;
76765;SDS011;65707;52.362;6.588;2023-10-09T07:59:52;21.42;;;9.32;;
76765;SDS011;65707;52.362;6.588;2023-10-09T08:02:36;18.67;;;8.45;;
76765;SDS011;65707;52.362;6.588;2023-10-09T08:05:04;24.00;;;9.23;;
76765;SDS011;65707;52.362;6.588;2023-10-09T08:07:44;21.15;;;8.90;;
76765;SDS011;65707;52.362;6.588;2023-10-09T08:10:22;20.15;;;8.32;;
76765;SDS011;65707;52.362;6.588;2023-10-09T08:13:06;19.75;;;8.43;;
76765;SDS011;65707;52.362;6.588;2023-10-09T08:15:48;19.92;;;8.45;;
76765;SDS011;65707;52.362;6.588;2023-10-09T08:18:26;21.02;;;8.95;;
76765;SDS011;65707;52.362;6.588;2023-10-09T08:20:56;25.77;;;9.05;;
76765;SDS011;65707;52.362;6.588;2023-10-09T08:23:41;23.00;;;9.02;;
76765;SDS011;65707;52.362;6.588;2023-10-09T08:26:19;18.33;;;8.48;;
76765;SDS011;65707;52.362;6.588;2023-10-09T08:28:57;22.92;;;9.00;;
76765;SDS011;65707;52.362;6.588;2023-10-09T08:31:39;20.38;;;8.85;;
76765;SDS011;65707;52.362;6.588;2023-10-09T08:34:27;22.70;;;8.77;;
76765;SDS011;65707;52.362;6.588;2023-10-09T08:37:00;17.35;;;8.50;;
76765;SDS011;65707;52.362;6.588;2023-10-09T08:39:38;19.38;;;8.60;;
76765;SDS011;65707;52.362;6.588;2023-10-09T08:42:04;20.77;;;8.27;;
76765;SDS011;65707;52.362;6.588;2023-10-09T08:44:33;21.25;;;8.65;;
76765;SDS011;65707;52.362;6.588;2023-10-09T08:47:02;17.58;;;9.18;;
76765;SDS011;65707;52.362;6.588;2023-10-09T08:49:36;18.83;;;8.13;;
76765;SDS011;65707;52.362;6.588;2023-10-09T08:52:03;21.02;;;9.32;;
76765;SDS011;65707;52.362;6.588;2023-10-09T08:54:32;19.35;;;8.48;;
76765;SDS011;65707;52.362;6.588;2023-10-09T08:56:59;25.10;;;9.10;;
76765;SDS011;65707;52.362;6.588;2023-10-09T08:59:27;18.98;;;8.35;;
76765;SDS011;65707;52.362;6.588;2023-10-09T09:01:58;19.00;;;8.60;;
76765;SDS011;65707;52.362;6.588;2023-10-09T09:04:34;19.23;;;8.35;;
76765;SDS011;65707;52.362;6.588;2023-10-09T09:07:05;20.80;;;8.88;;
76765;SDS011;65707;52.362;6.588;2023-10-09T09:09:54;20.00;;;8.32;;
76765;SDS011;65707;52.362;6.588;2023-10-09T09:12:26;17.85;;;8.13;;
76765;SDS011;65707;52.362;6.588;2023-10-09T09:14:56;21.55;;;8.43;;
76765;SDS011;65707;52.362;6.588;2023-10-09T09:17:23;20.42;;;7.85;;
76765;SDS011;65707;52.362;6.588;2023-10-09T09:20:01;21.73;;;7.47;;
76765;SDS011;65707;52.362;6.588;2023-10-09T09:22:51;21.20;;;8.35;;
76765;SDS011;65707;52.362;6.588;2023-10-09T09:25:19;17.25;;;7.55;;
76765;SDS011;65707;52.362;6.588;2023-10-09T09:27:49;16.85;;;7.80;;
76765;SDS011;65707;52.362;6.588;2023-10-09T09:30:22;18.70;;;7.35;;
76765;SDS011;65707;52.362;6.588;2023-10-09T09:32:56;17.77;;;7.93;;
76765;SDS011;65707;52.362;6.588;2023-10-09T09:35:38;18.17;;;7.57;;
76765;SDS011;65707;52.362;6.588;2023-10-09T09:38:13;17.35;;;7.30;;
76765;SDS011;65707;52.362;6.588;2023-10-09T09:43:19;18.55;;;7.25;;
76765;SDS011;65707;52.362;6.588;2023-10-09T09:45:50;18.48;;;7.95;;
76765;SDS011;65707;52.362;6.588;2023-10-09T09:48:21;18.63;;;7.72;;
76765;SDS011;65707;52.362;6.588;2023-10-09T09:50:54;17.42;;;7.15;;
76765;SDS011;65707;52.362;6.588;2023-10-09T09:53:21;17.88;;;6.80;;
76765;SDS011;65707;52.362;6.588;2023-10-09T09:55:49;18.35;;;7.63;;
76765;SDS011;65707;52.362;6.588;2023-10-09T09:58:22;15.52;;;6.82;;
76765;SDS011;65707;52.362;6.588;2023-10-09T10:00:59;16.08;;;6.82;;
76765;SDS011;65707;52.362;6.588;2023-10-09T10:03:40;16.75;;;6.63;;
76765;SDS011;65707;52.362;6.588;2023-10-09T10:06:16;17.60;;;6.72;;
76765;SDS011;65707;52.362;6.588;2023-10-09T10:08:47;16.05;;;6.47;;
76765;SDS011;65707;52.362;6.588;2023-10-09T10:14:11;15.05;;;6.25;;
76765;SDS011;65707;52.362;6.588;2023-10-09T10:17:03;16.00;;;6.75;;
76765;SDS011;65707;52.362;6.588;2023-10-09T10:25:59;17.50;;;6.80;;
76765;SDS011;65707;52.362;6.588;2023-10-09T10:28:46;15.60;;;5.78;;
76765;SDS011;65707;52.362;6.588;2023-10-09T10:31:55;14.30;;;5.85;;
76765;SDS011;65707;52.362;6.588;2023-10-09T10:34:26;18.55;;;5.30;;
76765;SDS011;65707;52.362;6.588;2023-10-09T10:37:34;13.43;;;5.88;;
76765;SDS011;65707;52.362;6.588;2023-10-09T10:40:03;13.90;;;4.95;;
76765;SDS011;65707;52.362;6.588;2023-10-09T10:42:52;14.65;;;5.55;;
76765;SDS011;65707;52.362;6.588;2023-10-09T10:45:34;15.32;;;5.55;;
76765;SDS011;65707;52.362;6.588;2023-10-09T10:48:08;15.98;;;5.63;;
76765;SDS011;65707;52.362;6.588;2023-10-09T10:50:49;15.77;;;5.68;;
76765;SDS011;65707;52.362;6.588;2023-10-09T10:53:23;13.73;;;5.38;;
76765;SDS011;65707;52.362;6.588;2023-10-09T10:56:00;17.98;;;5.70;;
76765;SDS011;65707;52.362;6.588;2023-10-09T10:58:51;14.73;;;5.20;;
76765;SDS011;65707;52.362;6.588;2023-10-09T11:01:36;15.93;;;4.70;;
76765;SDS011;65707;52.362;6.588;2023-10-09T11:04:25;15.13;;;5.05;;
76765;SDS011;65707;52.362;6.588;2023-10-09T11:07:05;15.98;;;5.20;;
76765;SDS011;65707;52.362;6.588;2023-10-09T11:09:42;16.55;;;5.22;;
76765;SDS011;65707;52.362;6.588;2023-10-09T11:12:25;15.45;;;4.90;;
76765;SDS011;65707;52.362;6.588;2023-10-09T11:15:03;15.48;;;4.70;;
76765;SDS011;65707;52.362;6.588;2023-10-09T11:17:34;16.90;;;4.75;;
76765;SDS011;65707;52.362;6.588;2023-10-09T11:20:04;18.30;;;4.68;;
76765;SDS011;65707;52.362;6.588;2023-10-09T11:22:47;16.10;;;4.93;;
76765;SDS011;65707;52.362;6.588;2023-10-09T11:25:40;13.00;;;4.10;;
76765;SDS011;65707;52.362;6.588;2023-10-09T11:28:19;13.85;;;4.68;;
76765;SDS011;65707;52.362;6.588;2023-10-09T11:31:07;12.00;;;4.10;;
76765;SDS011;65707;52.362;6.588;2023-10-09T11:33:45;16.63;;;4.25;;
76765;SDS011;65707;52.362;6.588;2023-10-09T11:36:16;15.13;;;4.40;;
76765;SDS011;65707;52.362;6.588;2023-10-09T11:38:48;13.98;;;4.18;;
76765;SDS011;65707;52.362;6.588;2023-10-09T11:41:39;15.25;;;4.30;;
76765;SDS011;65707;52.362;6.588;2023-10-09T11:44:06;15.23;;;4.50;;
76765;SDS011;65707;52.362;6.588;2023-10-09T11:46:47;19.52;;;4.97;;
76765;SDS011;65707;52.362;6.588;2023-10-09T11:49:46;15.75;;;4.32;;
76765;SDS011;65707;52.362;6.588;2023-10-09T11:52:21;12.20;;;3.92;;
76765;SDS011;65707;52.362;6.588;2023-10-09T11:55:05;13.88;;;4.15;;
76765;SDS011;65707;52.362;6.588;2023-10-09T11:57:40;15.27;;;4.85;;
76765;SDS011;65707;52.362;6.588;2023-10-09T12:00:15;14.95;;;4.18;;
76765;SDS011;65707;52.362;6.588;2023-10-09T12:02:57;17.10;;;4.53;;
76765;SDS011;65707;52.362;6.588;2023-10-09T12:05:30;14.07;;;4.20;;
76765;SDS011;65707;52.362;6.588;2023-10-09T12:07:57;13.50;;;4.68;;
76765;SDS011;65707;52.362;6.588;2023-10-09T12:10:28;13.50;;;4.40;;
76765;SDS011;65707;52.362;6.588;2023-10-09T12:12:59;17.95;;;4.60;;
76765;SDS011;65707;52.362;6.588;2023-10-09T12:15:34;15.93;;;4.20;;
76765;SDS011;65707;52.362;6.588;2023-10-09T12:18:19;16.20;;;5.18;;
76765;SDS011;65707;52.362;6.588;2023-10-09T12:20:51;15.13;;;5.10;;
76765;SDS011;65707;52.362;6.588;2023-10-09T12:23:31;14.23;;;4.47;;
76765;SDS011;65707;52.362;6.588;2023-10-09T12:26:03;18.27;;;5.22;;
76765;SDS011;65707;52.362;6.588;2023-10-09T12:28:38;15.40;;;5.10;;
76765;SDS011;65707;52.362;6.588;2023-10-09T12:31:07;16.08;;;4.72;;
76765;SDS011;65707;52.362;6.588;2023-10-09T12:33:34;18.33;;;4.75;;
76765;SDS011;65707;52.362;6.588;2023-10-09T12:36:04;16.85;;;4.40;;
76765;SDS011;65707;52.362;6.588;2023-10-09T12:38:36;13.45;;;4.85;;
76765;SDS011;65707;52.362;6.588;2023-10-09T12:41:14;15.98;;;5.22;;
76765;SDS011;65707;52.362;6.588;2023-10-09T12:43:45;17.88;;;5.03;;
76765;SDS011;65707;52.362;6.588;2023-10-09T12:46:19;18.08;;;5.30;;
76765;SDS011;65707;52.362;6.588;2023-10-09T12:48:48;13.52;;;4.90;;
76765;SDS011;65707;52.362;6.588;2023-10-09T12:51:15;15.00;;;4.80;;
76765;SDS011;65707;52.362;6.588;2023-10-09T12:53:46;15.50;;;5.00;;
76765;SDS011;65707;52.362;6.588;2023-10-09T12:56:23;16.20;;;4.75;;
76765;SDS011;65707;52.362;6.588;2023-10-09T12:59:08;14.52;;;4.80;;
76765;SDS011;65707;52.362;6.588;2023-10-09T13:01:39;11.57;;;4.30;;
76765;SDS011;65707;52.362;6.588;2023-10-09T13:04:09;14.63;;;4.15;;
76765;SDS011;65707;52.362;6.588;2023-10-09T13:06:37;11.20;;;4.07;;
76765;SDS011;65707;52.362;6.588;2023-10-09T13:09:09;12.18;;;4.18;;
76765;SDS011;65707;52.362;6.588;2023-10-09T13:11:37;14.30;;;4.45;;
76765;SDS011;65707;52.362;6.588;2023-10-09T13:14:05;13.43;;;4.10;;
76765;SDS011;65707;52.362;6.588;2023-10-09T13:16:42;11.55;;;3.85;;
76765;SDS011;65707;52.362;6.588;2023-10-09T13:19:11;10.25;;;3.90;;
76765;SDS011;65707;52.362;6.588;2023-10-09T13:21:38;14.73;;;4.53;;
76765;SDS011;65707;52.362;6.588;2023-10-09T13:24:07;12.00;;;3.92;;
76765;SDS011;65707;52.362;6.588;2023-10-09T13:26:39;16.40;;;4.53;;
76765;SDS011;65707;52.362;6.588;2023-10-09T13:29:11;14.45;;;3.70;;
76765;SDS011;65707;52.362;6.588;2023-10-09T13:31:47;13.82;;;3.72;;
76765;SDS011;65707;52.362;6.588;2023-10-09T13:34:17;14.77;;;4.05;;
76765;SDS011;65707;52.362;6.588;2023-10-09T13:36:44;14.05;;;3.67;;
76765;SDS011;65707;52.362;6.588;2023-10-09T13:39:15;12.65;;;4.03;;
76765;SDS011;65707;52.362;6.588;2023-10-09T13:41:53;9.52;;;3.78;;
76765;SDS011;65707;52.362;6.588;2023-10-09T13:44:24;11.82;;;3.90;;
76765;SDS011;65707;52.362;6.588;2023-10-09T13:46:53;12.13;;;3.65;;
76765;SDS011;65707;52.362;6.588;2023-10-09T13:49:20;15.23;;;3.47;;
76765;SDS011;65707;52.362;6.588;2023-10-09T13:51:55;12.23;;;3.88;;
76765;SDS011;65707;52.362;6.588;2023-10-09T13:54:22;11.77;;;3.30;;
76765;SDS011;65707;52.362;6.588;2023-10-09T13:57:05;12.70;;;3.75;;
76765;SDS011;65707;52.362;6.588;2023-10-09T13:59:35;9.80;;;3.38;;
76765;SDS011;65707;52.362;6.588;2023-10-09T14:02:08;10.45;;;3.75;;
76765;SDS011;65707;52.362;6.588;2023-10-09T14:04:35;12.38;;;3.92;;
76765;SDS011;65707;52.362;6.588;2023-10-09T14:07:04;11.25;;;3.78;;
76765;SDS011;65707;52.362;6.588;2023-10-09T14:09:31;10.25;;;3.65;;
76765;SDS011;65707;52.362;6.588;2023-10-09T14:12:03;12.82;;;4.55;;
76765;SDS011;65707;52.362;6.588;2023-10-09T14:14:34;13.95;;;3.67;;
76765;SDS011;65707;52.362;6.588;2023-10-09T14:17:03;14.23;;;4.13;;
76765;SDS011;65707;52.362;6.588;2023-10-09T14:19:37;12.30;;;3.97;;
76765;SDS011;65707;52.362;6.588;2023-10-09T14:22:06;13.55;;;4.00;;
76765;SDS011;65707;52.362;6.588;2023-10-09T14:24:33;12.35;;;3.97;;
76765;SDS011;65707;52.362;6.588;2023-10-09T14:27:03;11.95;;;4.05;;
76765;SDS011;65707;52.362;6.588;2023-10-09T14:29:32;12.07;;;3.85;;
76765;SDS011;65707;52.362;6.588;2023-10-09T14:32:02;12.10;;;3.83;;
76765;SDS011;65707;52.362;6.588;2023-10-09T14:34:31;11.30;;;3.70;;
76765;SDS011;65707;52.362;6.588;2023-10-09T14:37:02;11.52;;;4.15;;
76765;SDS011;65707;52.362;6.588;2023-10-09T14:39:31;16.25;;;4.38;;
76765;SDS011;65707;52.362;6.588;2023-10-09T14:42:03;12.20;;;3.88;;
76765;SDS011;65707;52.362;6.588;2023-10-09T14:44:35;13.38;;;4.05;;
76765;SDS011;65707;52.362;6.588;2023-10-09T14:47:05;15.57;;;3.83;;
76765;SDS011;65707;52.362;6.588;2023-10-09T14:49:33;11.77;;;3.78;;
76765;SDS011;65707;52.362;6.588;2023-10-09T14:54:31;14.40;;;3.83;;
76765;SDS011;65707;52.362;6.588;2023-10-09T14:56:58;12.77;;;3.67;;
76765;SDS011;65707;52.362;6.588;2023-10-09T14:59:25;13.27;;;4.10;;
76765;SDS011;65707;52.362;6.588;2023-10-09T15:01:53;11.80;;;3.47;;
76765;SDS011;65707;52.362;6.588;2023-10-09T15:04:23;10.95;;;3.45;;
76765;SDS011;65707;52.362;6.588;2023-10-09T15:06:50;12.57;;;4.18;;
76765;SDS011;65707;52.362;6.588;2023-10-09T15:09:17;13.93;;;3.95;;
76765;SDS011;65707;52.362;6.588;2023-10-09T15:11:48;11.23;;;3.42;;
76765;SDS011;65707;52.362;6.588;2023-10-09T15:14:17;12.65;;;3.70;;
76765;SDS011;65707;52.362;6.588;2023-10-09T15:16:46;12.20;;;3.70;;
76765;SDS011;65707;52.362;6.588;2023-10-09T15:19:26;10.65;;;3.80;;
76765;SDS011;65707;52.362;6.588;2023-10-09T15:21:56;13.25;;;3.63;;
76765;SDS011;65707;52.362;6.588;2023-10-09T15:24:23;11.90;;;3.00;;
76765;SDS011;65707;52.362;6.588;2023-10-09T15:26:55;11.60;;;3.55;;
76765;SDS011;65707;52.362;6.588;2023-10-09T15:29:23;14.43;;;4.07;;